Manchester, GA (31816)

9:56 PM EST on December 05, 2016 (GMT -0500)
RoseParadiseFarm Hwy 36 | | Change Station

Elev 804 ft 32.70 °N, 84.70 °W | Updated 2 seconds ago

Light Rain
Light Rain
52.7 °F
Feels Like 52.7 °F
N
2.0
Wind Variable Wind from SE
Gusts 6.0 mph

Today
High -- | Low -- °F
--% Chance of Precip.
Yesterday
High -- | Low -- °F
Precip. -- in
Pressure 29.87 in
Visibility 10.0 miles
Clouds Mostly Cloudy 500 ft
Overcast 2200 ft
Dew Point 52 °F
Humidity 96%
Rainfall 1.32 in
Snow Depth Not available.
7:26 AM 5:31 PM
Waxing Crescent, 37% visible
METAR KOPN 060235Z AUTO 06011G14KT 10SM -RA BKN005 OVC022 11/09 A2987 RMK AO2
Pressure 29.87 in
Visibility 10.0 miles
Clouds Mostly Cloudy 500 ft
Overcast 2200 ft
Dew Point 52 °F
Humidity 96%
Rainfall 1.32 in
Snow Depth Not available.
7:26 AM 5:31 PM
Waxing Crescent, 37% visible
METAR KOPN 060235Z AUTO 06011G14KT 10SM -RA BKN005 OVC022 11/09 A2987 RMK AO2

10-Day Weather Forecast

Almanac

Astronomy

Dec. 05, 2016 Rise Set
Actual Time
Civil Twilight
Nautical Twilight
Astronomical Twilight
Moon
Length of Visible Light
Length of Day
Tomorrow will be .
, % of the Moon is Illuminated

Today's Extremes

State Highs State Lows

Community

WunderPhotos

Upload Photos

1,955,908 photos uploaded!

WunderBlog® & News

Nearby

Air Quality

  Air Quality AQ Index Pollutant
Not available.

Snow Depth

Station Depth Elevation

Earthquake Activity

City Distance Mag. Time & Date
Minimum magnitude displayed is 2.5.

Coastal Water Temperatures

Place Temperature

Stations

Nearby Weather Stations

Station Location Temp. Windchill Dew Point Humidity Wind Precip. Elev Updated Type
                   

Watches & Warnings

There are currently no watches in effect.